sensor_id;sensor_type;location;lat;lon;timestamp;P1;durP1;ratioP1;P2;durP2;ratioP2
3922;SDS011;1976;51.694;6.256;2022-07-09T00:02:17;4.40;;;3.90;;
3922;SDS011;1976;51.694;6.256;2022-07-09T00:04:42;8.10;;;4.00;;
3922;SDS011;1976;51.694;6.256;2022-07-09T00:07:08;4.70;;;4.20;;
3922;SDS011;1976;51.694;6.256;2022-07-09T00:09:34;4.77;;;3.83;;
3922;SDS011;1976;51.694;6.256;2022-07-09T00:12:00;6.73;;;3.67;;
3922;SDS011;1976;51.694;6.256;2022-07-09T00:14:25;5.07;;;4.33;;
3922;SDS011;1976;51.694;6.256;2022-07-09T00:16:51;10.33;;;5.17;;
3922;SDS011;1976;51.694;6.256;2022-07-09T00:19:17;8.27;;;4.83;;
3922;SDS011;1976;51.694;6.256;2022-07-09T00:21:42;8.40;;;5.00;;
3922;SDS011;1976;51.694;6.256;2022-07-09T00:24:08;7.30;;;4.13;;
3922;SDS011;1976;51.694;6.256;2022-07-09T00:26:34;6.97;;;4.43;;
3922;SDS011;1976;51.694;6.256;2022-07-09T00:28:59;9.10;;;4.70;;
3922;SDS011;1976;51.694;6.256;2022-07-09T00:31:25;16.03;;;5.10;;
3922;SDS011;1976;51.694;6.256;2022-07-09T00:33:50;6.13;;;4.93;;
3922;SDS011;1976;51.694;6.256;2022-07-09T00:36:16;14.07;;;4.97;;
3922;SDS011;1976;51.694;6.256;2022-07-09T00:38:42;8.00;;;4.40;;
3922;SDS011;1976;51.694;6.256;2022-07-09T00:41:07;4.43;;;3.60;;
3922;SDS011;1976;51.694;6.256;2022-07-09T00:43:33;11.07;;;3.60;;
3922;SDS011;1976;51.694;6.256;2022-07-09T00:45:59;9.13;;;4.40;;
3922;SDS011;1976;51.694;6.256;2022-07-09T00:48:25;8.23;;;5.50;;
3922;SDS011;1976;51.694;6.256;2022-07-09T00:50:50;8.53;;;5.00;;
3922;SDS011;1976;51.694;6.256;2022-07-09T00:53:17;13.50;;;6.70;;
3922;SDS011;1976;51.694;6.256;2022-07-09T00:55:46;8.17;;;5.27;;
3922;SDS011;1976;51.694;6.256;2022-07-09T00:58:16;8.53;;;4.37;;
3922;SDS011;1976;51.694;6.256;2022-07-09T01:00:44;9.53;;;5.50;;
3922;SDS011;1976;51.694;6.256;2022-07-09T01:03:10;9.63;;;5.80;;
3922;SDS011;1976;51.694;6.256;2022-07-09T01:05:36;8.50;;;5.63;;
3922;SDS011;1976;51.694;6.256;2022-07-09T01:08:02;11.17;;;7.47;;
3922;SDS011;1976;51.694;6.256;2022-07-09T01:10:33;12.20;;;5.53;;
3922;SDS011;1976;51.694;6.256;2022-07-09T01:13:00;13.80;;;5.90;;
3922;SDS011;1976;51.694;6.256;2022-07-09T01:15:28;12.23;;;5.60;;
3922;SDS011;1976;51.694;6.256;2022-07-09T01:17:53;8.23;;;3.60;;
3922;SDS011;1976;51.694;6.256;2022-07-09T01:20:26;4.67;;;4.27;;
3922;SDS011;1976;51.694;6.256;2022-07-09T01:22:54;4.90;;;4.30;;
3922;SDS011;1976;51.694;6.256;2022-07-09T01:25:24;5.00;;;4.07;;
3922;SDS011;1976;51.694;6.256;2022-07-09T01:27:58;6.37;;;4.40;;
3922;SDS011;1976;51.694;6.256;2022-07-09T01:30:25;4.97;;;3.87;;
3922;SDS011;1976;51.694;6.256;2022-07-09T01:32:51;9.20;;;4.47;;
3922;SDS011;1976;51.694;6.256;2022-07-09T01:35:18;5.00;;;3.73;;
3922;SDS011;1976;51.694;6.256;2022-07-09T01:37:44;7.80;;;4.20;;
3922;SDS011;1976;51.694;6.256;2022-07-09T01:40:11;6.43;;;4.40;;
3922;SDS011;1976;51.694;6.256;2022-07-09T01:42:37;4.80;;;3.73;;
3922;SDS011;1976;51.694;6.256;2022-07-09T01:45:03;5.67;;;4.23;;
3922;SDS011;1976;51.694;6.256;2022-07-09T01:47:29;6.83;;;5.20;;
3922;SDS011;1976;51.694;6.256;2022-07-09T01:49:54;4.80;;;4.30;;
3922;SDS011;1976;51.694;6.256;2022-07-09T01:52:20;12.70;;;4.53;;
3922;SDS011;1976;51.694;6.256;2022-07-09T01:54:46;7.27;;;5.50;;
3922;SDS011;1976;51.694;6.256;2022-07-09T01:57:11;7.70;;;5.07;;
3922;SDS011;1976;51.694;6.256;2022-07-09T01:59:37;6.23;;;4.93;;
3922;SDS011;1976;51.694;6.256;2022-07-09T02:02:03;6.93;;;4.60;;
3922;SDS011;1976;51.694;6.256;2022-07-09T02:04:30;7.53;;;4.93;;
3922;SDS011;1976;51.694;6.256;2022-07-09T02:06:56;6.00;;;5.30;;
3922;SDS011;1976;51.694;6.256;2022-07-09T02:09:22;6.70;;;4.07;;
3922;SDS011;1976;51.694;6.256;2022-07-09T02:11:47;7.40;;;5.13;;
3922;SDS011;1976;51.694;6.256;2022-07-09T02:14:14;8.23;;;5.17;;
3922;SDS011;1976;51.694;6.256;2022-07-09T02:16:40;9.90;;;5.10;;
3922;SDS011;1976;51.694;6.256;2022-07-09T02:19:06;9.83;;;5.67;;
3922;SDS011;1976;51.694;6.256;2022-07-09T02:21:32;9.83;;;6.53;;
3922;SDS011;1976;51.694;6.256;2022-07-09T02:23:59;10.43;;;6.40;;
3922;SDS011;1976;51.694;6.256;2022-07-09T02:26:25;7.57;;;6.50;;
3922;SDS011;1976;51.694;6.256;2022-07-09T02:28:52;9.90;;;8.10;;
3922;SDS011;1976;51.694;6.256;2022-07-09T02:31:18;10.63;;;7.30;;
3922;SDS011;1976;51.694;6.256;2022-07-09T02:33:44;9.93;;;7.00;;
3922;SDS011;1976;51.694;6.256;2022-07-09T02:36:10;8.20;;;7.03;;
3922;SDS011;1976;51.694;6.256;2022-07-09T02:38:36;9.40;;;6.93;;
3922;SDS011;1976;51.694;6.256;2022-07-09T02:41:02;11.03;;;6.90;;
3922;SDS011;1976;51.694;6.256;2022-07-09T02:43:28;13.87;;;6.30;;
3922;SDS011;1976;51.694;6.256;2022-07-09T02:45:53;9.20;;;6.20;;
3922;SDS011;1976;51.694;6.256;2022-07-09T02:48:22;9.47;;;7.30;;
3922;SDS011;1976;51.694;6.256;2022-07-09T02:50:51;8.63;;;7.40;;
3922;SDS011;1976;51.694;6.256;2022-07-09T02:53:17;17.13;;;8.17;;
3922;SDS011;1976;51.694;6.256;2022-07-09T02:55:43;11.53;;;9.00;;
3922;SDS011;1976;51.694;6.256;2022-07-09T02:58:09;18.30;;;9.20;;
3922;SDS011;1976;51.694;6.256;2022-07-09T03:00:35;14.77;;;9.67;;
3922;SDS011;1976;51.694;6.256;2022-07-09T03:03:01;14.93;;;10.53;;
3922;SDS011;1976;51.694;6.256;2022-07-09T03:05:27;15.80;;;11.03;;
3922;SDS011;1976;51.694;6.256;2022-07-09T03:07:53;16.70;;;10.10;;
3922;SDS011;1976;51.694;6.256;2022-07-09T03:10:19;15.43;;;10.67;;
3922;SDS011;1976;51.694;6.256;2022-07-09T03:12:45;15.83;;;9.63;;
3922;SDS011;1976;51.694;6.256;2022-07-09T03:15:11;14.00;;;10.80;;
3922;SDS011;1976;51.694;6.256;2022-07-09T03:17:39;19.50;;;11.47;;
3922;SDS011;1976;51.694;6.256;2022-07-09T03:20:05;22.50;;;11.40;;
3922;SDS011;1976;51.694;6.256;2022-07-09T03:22:31;18.00;;;9.77;;
3922;SDS011;1976;51.694;6.256;2022-07-09T03:24:57;122.60;;;10.17;;
3922;SDS011;1976;51.694;6.256;2022-07-09T03:27:22;100.13;;;9.60;;
3922;SDS011;1976;51.694;6.256;2022-07-09T03:29:48;129.97;;;11.50;;
3922;SDS011;1976;51.694;6.256;2022-07-09T03:32:15;129.40;;;12.67;;
3922;SDS011;1976;51.694;6.256;2022-07-09T03:34:41;18.33;;;14.03;;
3922;SDS011;1976;51.694;6.256;2022-07-09T03:37:07;27.20;;;13.23;;
3922;SDS011;1976;51.694;6.256;2022-07-09T03:39:33;24.33;;;13.93;;
3922;SDS011;1976;51.694;6.256;2022-07-09T03:41:59;16.10;;;12.30;;
3922;SDS011;1976;51.694;6.256;2022-07-09T03:44:25;16.93;;;12.00;;
3922;SDS011;1976;51.694;6.256;2022-07-09T03:46:51;30.93;;;13.30;;
3922;SDS011;1976;51.694;6.256;2022-07-09T03:49:16;35.13;;;13.57;;
3922;SDS011;1976;51.694;6.256;2022-07-09T03:51:42;23.87;;;14.10;;
3922;SDS011;1976;51.694;6.256;2022-07-09T03:54:09;31.27;;;13.70;;
3922;SDS011;1976;51.694;6.256;2022-07-09T03:56:35;23.30;;;12.37;;
3922;SDS011;1976;51.694;6.256;2022-07-09T03:59:01;24.43;;;12.67;;
3922;SDS011;1976;51.694;6.256;2022-07-09T04:01:26;17.47;;;12.00;;
3922;SDS011;1976;51.694;6.256;2022-07-09T04:03:52;17.83;;;12.50;;
3922;SDS011;1976;51.694;6.256;2022-07-09T04:06:18;18.63;;;11.70;;
3922;SDS011;1976;51.694;6.256;2022-07-09T04:08:45;15.47;;;11.90;;
3922;SDS011;1976;51.694;6.256;2022-07-09T04:11:11;15.40;;;11.90;;
3922;SDS011;1976;51.694;6.256;2022-07-09T04:13:36;18.13;;;11.43;;
3922;SDS011;1976;51.694;6.256;2022-07-09T04:16:02;20.87;;;11.70;;
3922;SDS011;1976;51.694;6.256;2022-07-09T04:18:28;56.37;;;13.70;;
3922;SDS011;1976;51.694;6.256;2022-07-09T04:20:53;25.20;;;13.10;;
3922;SDS011;1976;51.694;6.256;2022-07-09T04:23:19;20.40;;;13.90;;
3922;SDS011;1976;51.694;6.256;2022-07-09T04:25:45;20.57;;;14.90;;
3922;SDS011;1976;51.694;6.256;2022-07-09T04:28:13;20.90;;;13.27;;
3922;SDS011;1976;51.694;6.256;2022-07-09T04:30:39;21.10;;;14.40;;
3922;SDS011;1976;51.694;6.256;2022-07-09T04:33:05;23.40;;;15.13;;
3922;SDS011;1976;51.694;6.256;2022-07-09T04:35:31;27.43;;;15.50;;
3922;SDS011;1976;51.694;6.256;2022-07-09T04:37:57;20.30;;;14.53;;
3922;SDS011;1976;51.694;6.256;2022-07-09T04:40:23;22.63;;;14.17;;
3922;SDS011;1976;51.694;6.256;2022-07-09T04:42:49;20.93;;;13.60;;
3922;SDS011;1976;51.694;6.256;2022-07-09T04:45:14;22.30;;;14.10;;
3922;SDS011;1976;51.694;6.256;2022-07-09T04:47:40;26.57;;;14.70;;
3922;SDS011;1976;51.694;6.256;2022-07-09T04:50:06;30.13;;;14.43;;
3922;SDS011;1976;51.694;6.256;2022-07-09T04:52:32;22.30;;;13.90;;
3922;SDS011;1976;51.694;6.256;2022-07-09T04:54:57;31.63;;;16.47;;
3922;SDS011;1976;51.694;6.256;2022-07-09T04:57:23;21.37;;;14.53;;
3922;SDS011;1976;51.694;6.256;2022-07-09T04:59:49;26.40;;;14.20;;
3922;SDS011;1976;51.694;6.256;2022-07-09T05:02:15;21.13;;;14.50;;
3922;SDS011;1976;51.694;6.256;2022-07-09T05:04:41;51.70;;;14.77;;
3922;SDS011;1976;51.694;6.256;2022-07-09T05:07:06;27.87;;;15.43;;
3922;SDS011;1976;51.694;6.256;2022-07-09T05:09:32;20.10;;;14.50;;
3922;SDS011;1976;51.694;6.256;2022-07-09T05:11:58;27.43;;;14.73;;
3922;SDS011;1976;51.694;6.256;2022-07-09T05:14:24;22.77;;;15.80;;
3922;SDS011;1976;51.694;6.256;2022-07-09T05:16:50;31.77;;;15.73;;
3922;SDS011;1976;51.694;6.256;2022-07-09T05:19:15;28.00;;;14.70;;
3922;SDS011;1976;51.694;6.256;2022-07-09T05:21:41;21.50;;;14.40;;
3922;SDS011;1976;51.694;6.256;2022-07-09T05:24:07;26.50;;;14.67;;
3922;SDS011;1976;51.694;6.256;2022-07-09T05:26:34;25.30;;;16.20;;
3922;SDS011;1976;51.694;6.256;2022-07-09T05:29:00;26.50;;;15.17;;
3922;SDS011;1976;51.694;6.256;2022-07-09T05:31:27;28.13;;;18.27;;
3922;SDS011;1976;51.694;6.256;2022-07-09T05:33:52;36.50;;;20.50;;
3922;SDS011;1976;51.694;6.256;2022-07-09T05:36:18;31.70;;;19.30;;
3922;SDS011;1976;51.694;6.256;2022-07-09T05:38:44;27.10;;;17.33;;
3922;SDS011;1976;51.694;6.256;2022-07-09T05:41:12;28.27;;;16.37;;
3922;SDS011;1976;51.694;6.256;2022-07-09T05:43:39;20.37;;;16.33;;
3922;SDS011;1976;51.694;6.256;2022-07-09T05:46:05;22.77;;;15.50;;
3922;SDS011;1976;51.694;6.256;2022-07-09T05:48:30;22.43;;;15.60;;
3922;SDS011;1976;51.694;6.256;2022-07-09T05:50:56;22.67;;;15.17;;
3922;SDS011;1976;51.694;6.256;2022-07-09T05:53:22;18.07;;;14.07;;
3922;SDS011;1976;51.694;6.256;2022-07-09T05:55:47;20.57;;;15.50;;
3922;SDS011;1976;51.694;6.256;2022-07-09T05:58:14;21.23;;;14.73;;
3922;SDS011;1976;51.694;6.256;2022-07-09T06:00:40;26.40;;;15.60;;
3922;SDS011;1976;51.694;6.256;2022-07-09T06:03:06;22.43;;;15.57;;
3922;SDS011;1976;51.694;6.256;2022-07-09T06:05:32;20.50;;;15.57;;
3922;SDS011;1976;51.694;6.256;2022-07-09T06:07:58;30.10;;;15.37;;
3922;SDS011;1976;51.694;6.256;2022-07-09T06:10:23;23.70;;;14.60;;
3922;SDS011;1976;51.694;6.256;2022-07-09T06:12:49;23.23;;;15.77;;
3922;SDS011;1976;51.694;6.256;2022-07-09T06:15:15;25.93;;;13.07;;
3922;SDS011;1976;51.694;6.256;2022-07-09T06:17:40;26.53;;;13.70;;
3922;SDS011;1976;51.694;6.256;2022-07-09T06:20:06;21.63;;;12.70;;
3922;SDS011;1976;51.694;6.256;2022-07-09T06:22:32;20.20;;;13.77;;
3922;SDS011;1976;51.694;6.256;2022-07-09T06:24:58;19.07;;;13.40;;
3922;SDS011;1976;51.694;6.256;2022-07-09T06:27:24;20.30;;;11.50;;
3922;SDS011;1976;51.694;6.256;2022-07-09T06:29:49;17.10;;;11.80;;
3922;SDS011;1976;51.694;6.256;2022-07-09T06:32:15;15.53;;;11.50;;
3922;SDS011;1976;51.694;6.256;2022-07-09T06:34:41;19.07;;;11.80;;
3922;SDS011;1976;51.694;6.256;2022-07-09T06:37:07;24.67;;;13.30;;
3922;SDS011;1976;51.694;6.256;2022-07-09T06:39:33;18.53;;;12.83;;
3922;SDS011;1976;51.694;6.256;2022-07-09T06:42:11;12.43;;;11.13;;
3922;SDS011;1976;51.694;6.256;2022-07-09T06:44:37;18.30;;;12.20;;
3922;SDS011;1976;51.694;6.256;2022-07-09T06:47:04;14.47;;;10.83;;
3922;SDS011;1976;51.694;6.256;2022-07-09T06:49:30;17.63;;;11.50;;
3922;SDS011;1976;51.694;6.256;2022-07-09T06:51:56;30.50;;;14.03;;
3922;SDS011;1976;51.694;6.256;2022-07-09T06:54:22;17.03;;;11.13;;
3922;SDS011;1976;51.694;6.256;2022-07-09T06:56:48;23.07;;;13.03;;
3922;SDS011;1976;51.694;6.256;2022-07-09T06:59:14;20.13;;;13.10;;
3922;SDS011;1976;51.694;6.256;2022-07-09T07:01:41;15.80;;;12.63;;
3922;SDS011;1976;51.694;6.256;2022-07-09T07:04:06;17.60;;;12.83;;
3922;SDS011;1976;51.694;6.256;2022-07-09T07:06:32;21.83;;;12.30;;
3922;SDS011;1976;51.694;6.256;2022-07-09T07:08:58;14.73;;;11.13;;
3922;SDS011;1976;51.694;6.256;2022-07-09T07:11:24;21.10;;;11.53;;
3922;SDS011;1976;51.694;6.256;2022-07-09T07:13:50;15.00;;;9.87;;
3922;SDS011;1976;51.694;6.256;2022-07-09T07:16:16;18.83;;;12.30;;
3922;SDS011;1976;51.694;6.256;2022-07-09T07:18:42;17.63;;;12.90;;
3922;SDS011;1976;51.694;6.256;2022-07-09T07:21:08;18.40;;;10.13;;
3922;SDS011;1976;51.694;6.256;2022-07-09T07:23:34;15.70;;;11.73;;
3922;SDS011;1976;51.694;6.256;2022-07-09T07:25:59;13.07;;;10.67;;
3922;SDS011;1976;51.694;6.256;2022-07-09T07:28:25;14.23;;;10.00;;
3922;SDS011;1976;51.694;6.256;2022-07-09T07:30:51;15.83;;;9.23;;
3922;SDS011;1976;51.694;6.256;2022-07-09T07:33:17;17.27;;;9.60;;
3922;SDS011;1976;51.694;6.256;2022-07-09T07:35:43;22.30;;;12.07;;
3922;SDS011;1976;51.694;6.256;2022-07-09T07:38:09;9.90;;;8.43;;
3922;SDS011;1976;51.694;6.256;2022-07-09T07:40:35;16.80;;;9.20;;
3922;SDS011;1976;51.694;6.256;2022-07-09T07:43:01;12.90;;;10.03;;
3922;SDS011;1976;51.694;6.256;2022-07-09T07:45:30;15.30;;;9.13;;
3922;SDS011;1976;51.694;6.256;2022-07-09T07:47:56;11.53;;;9.47;;
3922;SDS011;1976;51.694;6.256;2022-07-09T07:50:22;15.70;;;10.00;;
3922;SDS011;1976;51.694;6.256;2022-07-09T07:52:49;14.30;;;9.13;;
3922;SDS011;1976;51.694;6.256;2022-07-09T07:55:15;18.93;;;9.83;;
3922;SDS011;1976;51.694;6.256;2022-07-09T07:57:41;15.17;;;8.30;;
3922;SDS011;1976;51.694;6.256;2022-07-09T08:00:07;13.93;;;9.17;;
3922;SDS011;1976;51.694;6.256;2022-07-09T08:02:34;15.07;;;10.10;;
3922;SDS011;1976;51.694;6.256;2022-07-09T08:05:00;17.33;;;10.00;;
3922;SDS011;1976;51.694;6.256;2022-07-09T08:07:26;12.60;;;8.80;;
3922;SDS011;1976;51.694;6.256;2022-07-09T08:09:52;17.60;;;9.80;;
3922;SDS011;1976;51.694;6.256;2022-07-09T08:12:17;13.83;;;10.17;;
3922;SDS011;1976;51.694;6.256;2022-07-09T08:14:44;11.27;;;9.37;;
3922;SDS011;1976;51.694;6.256;2022-07-09T08:17:09;12.93;;;9.40;;
3922;SDS011;1976;51.694;6.256;2022-07-09T08:19:35;9.10;;;6.30;;
3922;SDS011;1976;51.694;6.256;2022-07-09T08:22:01;17.13;;;8.93;;
3922;SDS011;1976;51.694;6.256;2022-07-09T08:24:27;14.47;;;9.87;;
3922;SDS011;1976;51.694;6.256;2022-07-09T08:26:53;13.03;;;9.30;;
3922;SDS011;1976;51.694;6.256;2022-07-09T08:29:18;11.03;;;8.27;;
3922;SDS011;1976;51.694;6.256;2022-07-09T08:31:44;12.37;;;8.13;;
3922;SDS011;1976;51.694;6.256;2022-07-09T08:34:10;9.60;;;7.77;;
3922;SDS011;1976;51.694;6.256;2022-07-09T08:36:35;9.50;;;8.40;;
3922;SDS011;1976;51.694;6.256;2022-07-09T08:39:01;15.70;;;8.90;;
3922;SDS011;1976;51.694;6.256;2022-07-09T08:41:27;5.40;;;4.30;;
3922;SDS011;1976;51.694;6.256;2022-07-09T08:43:53;12.20;;;7.73;;
3922;SDS011;1976;51.694;6.256;2022-07-09T08:46:19;12.93;;;7.73;;
3922;SDS011;1976;51.694;6.256;2022-07-09T08:48:45;12.03;;;6.53;;
3922;SDS011;1976;51.694;6.256;2022-07-09T08:51:12;6.43;;;5.00;;
3922;SDS011;1976;51.694;6.256;2022-07-09T08:53:41;11.00;;;6.53;;
3922;SDS011;1976;51.694;6.256;2022-07-09T08:56:08;7.73;;;5.13;;
3922;SDS011;1976;51.694;6.256;2022-07-09T08:58:35;14.53;;;6.60;;
3922;SDS011;1976;51.694;6.256;2022-07-09T09:01:02;9.53;;;6.67;;
3922;SDS011;1976;51.694;6.256;2022-07-09T09:03:29;8.10;;;6.83;;
3922;SDS011;1976;51.694;6.256;2022-07-09T09:06:02;9.37;;;5.70;;
3922;SDS011;1976;51.694;6.256;2022-07-09T09:08:37;14.60;;;6.20;;
3922;SDS011;1976;51.694;6.256;2022-07-09T09:11:08;8.17;;;6.37;;
3922;SDS011;1976;51.694;6.256;2022-07-09T09:13:43;8.93;;;6.80;;
3922;SDS011;1976;51.694;6.256;2022-07-09T09:16:10;9.40;;;6.77;;
3922;SDS011;1976;51.694;6.256;2022-07-09T09:18:37;10.63;;;8.00;;
3922;SDS011;1976;51.694;6.256;2022-07-09T09:21:06;12.70;;;8.07;;
3922;SDS011;1976;51.694;6.256;2022-07-09T09:23:39;8.80;;;7.50;;
3922;SDS011;1976;51.694;6.256;2022-07-09T09:26:12;13.40;;;8.53;;
3922;SDS011;1976;51.694;6.256;2022-07-09T09:28:52;7.60;;;6.70;;
3922;SDS011;1976;51.694;6.256;2022-07-09T09:31:26;9.53;;;6.60;;
3922;SDS011;1976;51.694;6.256;2022-07-09T09:33:54;9.20;;;6.70;;
3922;SDS011;1976;51.694;6.256;2022-07-09T09:36:28;5.43;;;4.90;;
3922;SDS011;1976;51.694;6.256;2022-07-09T09:39:06;8.80;;;6.10;;
3922;SDS011;1976;51.694;6.256;2022-07-09T09:41:44;16.67;;;5.00;;
3922;SDS011;1976;51.694;6.256;2022-07-09T09:44:19;8.03;;;4.90;;
3922;SDS011;1976;51.694;6.256;2022-07-09T09:46:49;10.93;;;5.37;;
3922;SDS011;1976;51.694;6.256;2022-07-09T09:49:15;7.53;;;5.17;;
3922;SDS011;1976;51.694;6.256;2022-07-09T09:51:44;7.87;;;4.87;;
3922;SDS011;1976;51.694;6.256;2022-07-09T09:54:11;11.43;;;4.40;;
3922;SDS011;1976;51.694;6.256;2022-07-09T09:56:38;9.60;;;3.90;;
3922;SDS011;1976;51.694;6.256;2022-07-09T09:59:04;5.53;;;4.87;;
3922;SDS011;1976;51.694;6.256;2022-07-09T10:01:30;5.03;;;4.10;;
3922;SDS011;1976;51.694;6.256;2022-07-09T10:03:57;13.23;;;4.70;;
3922;SDS011;1976;51.694;6.256;2022-07-09T10:06:23;6.87;;;4.10;;
3922;SDS011;1976;51.694;6.256;2022-07-09T10:08:50;8.83;;;4.73;;
3922;SDS011;1976;51.694;6.256;2022-07-09T10:11:16;4.50;;;4.10;;
3922;SDS011;1976;51.694;6.256;2022-07-09T10:13:54;5.33;;;4.50;;
3922;SDS011;1976;51.694;6.256;2022-07-09T10:16:34;7.27;;;4.20;;
3922;SDS011;1976;51.694;6.256;2022-07-09T10:19:01;3.70;;;3.20;;
3922;SDS011;1976;51.694;6.256;2022-07-09T10:21:50;4.33;;;3.37;;
3922;SDS011;1976;51.694;6.256;2022-07-09T10:24:23;4.73;;;3.30;;
3922;SDS011;1976;51.694;6.256;2022-07-09T10:26:49;5.47;;;2.93;;
3922;SDS011;1976;51.694;6.256;2022-07-09T10:29:19;4.70;;;2.67;;
3922;SDS011;1976;51.694;6.256;2022-07-09T10:31:49;4.50;;;3.80;;
3922;SDS011;1976;51.694;6.256;2022-07-09T10:34:21;4.07;;;3.53;;
3922;SDS011;1976;51.694;6.256;2022-07-09T10:37:02;3.63;;;3.30;;
3922;SDS011;1976;51.694;6.256;2022-07-09T10:39:30;4.30;;;3.90;;
3922;SDS011;1976;51.694;6.256;2022-07-09T10:42:03;9.20;;;3.80;;
3922;SDS011;1976;51.694;6.256;2022-07-09T10:44:42;13.60;;;4.77;;
3922;SDS011;1976;51.694;6.256;2022-07-09T10:47:08;9.50;;;4.40;;
3922;SDS011;1976;51.694;6.256;2022-07-09T10:49:34;8.97;;;4.93;;
3922;SDS011;1976;51.694;6.256;2022-07-09T10:52:00;9.97;;;5.80;;
3922;SDS011;1976;51.694;6.256;2022-07-09T10:54:26;9.93;;;7.10;;
3922;SDS011;1976;51.694;6.256;2022-07-09T10:56:53;12.80;;;6.70;;
3922;SDS011;1976;51.694;6.256;2022-07-09T10:59:20;7.50;;;6.10;;
3922;SDS011;1976;51.694;6.256;2022-07-09T11:01:46;11.97;;;7.13;;
3922;SDS011;1976;51.694;6.256;2022-07-09T11:04:22;7.87;;;6.13;;
3922;SDS011;1976;51.694;6.256;2022-07-09T11:06:52;7.40;;;5.47;;
3922;SDS011;1976;51.694;6.256;2022-07-09T11:09:18;9.70;;;6.63;;
3922;SDS011;1976;51.694;6.256;2022-07-09T11:11:45;6.63;;;4.97;;
3922;SDS011;1976;51.694;6.256;2022-07-09T11:14:12;8.97;;;5.63;;
3922;SDS011;1976;51.694;6.256;2022-07-09T11:16:38;14.30;;;5.43;;
3922;SDS011;1976;51.694;6.256;2022-07-09T11:19:17;10.80;;;4.80;;
3922;SDS011;1976;51.694;6.256;2022-07-09T11:21:43;8.60;;;4.40;;
3922;SDS011;1976;51.694;6.256;2022-07-09T11:24:17;7.53;;;4.90;;
3922;SDS011;1976;51.694;6.256;2022-07-09T11:26:47;11.70;;;5.50;;
3922;SDS011;1976;51.694;6.256;2022-07-09T11:29:13;6.53;;;5.40;;
3922;SDS011;1976;51.694;6.256;2022-07-09T11:31:50;18.77;;;7.13;;
3922;SDS011;1976;51.694;6.256;2022-07-09T11:34:17;10.07;;;6.00;;
3922;SDS011;1976;51.694;6.256;2022-07-09T11:36:51;14.20;;;6.77;;
3922;SDS011;1976;51.694;6.256;2022-07-09T11:39:23;12.53;;;4.03;;
3922;SDS011;1976;51.694;6.256;2022-07-09T11:41:54;5.20;;;2.70;;
3922;SDS011;1976;51.694;6.256;2022-07-09T11:47:06;5.07;;;3.10;;
3922;SDS011;1976;51.694;6.256;2022-07-09T11:49:39;6.30;;;3.57;;
3922;SDS011;1976;51.694;6.256;2022-07-09T11:52:16;5.20;;;4.00;;
3922;SDS011;1976;51.694;6.256;2022-07-09T11:55:49;4.00;;;3.30;;
3922;SDS011;1976;51.694;6.256;2022-07-09T11:57:49;3.40;;;3.10;;
3922;SDS011;1976;51.694;6.256;2022-07-09T12:00:21;5.60;;;3.37;;
3922;SDS011;1976;51.694;6.256;2022-07-09T12:02:54;3.80;;;2.67;;
3922;SDS011;1976;51.694;6.256;2022-07-09T12:05:27;5.23;;;2.80;;
3922;SDS011;1976;51.694;6.256;2022-07-09T12:08:02;7.57;;;2.53;;
3922;SDS011;1976;51.694;6.256;2022-07-09T12:10:31;6.03;;;2.63;;
3922;SDS011;1976;51.694;6.256;2022-07-09T12:12:58;3.77;;;1.70;;
3922;SDS011;1976;51.694;6.256;2022-07-09T12:15:25;6.40;;;2.07;;
3922;SDS011;1976;51.694;6.256;2022-07-09T12:17:53;1.67;;;1.47;;
3922;SDS011;1976;51.694;6.256;2022-07-09T12:20:20;1.93;;;1.23;;
3922;SDS011;1976;51.694;6.256;2022-07-09T12:22:50;5.10;;;1.40;;
3922;SDS011;1976;51.694;6.256;2022-07-09T12:25:16;2.70;;;1.13;;
3922;SDS011;1976;51.694;6.256;2022-07-09T12:27:41;0.97;;;0.97;;
3922;SDS011;1976;51.694;6.256;2022-07-09T12:30:07;1.87;;;1.60;;
3922;SDS011;1976;51.694;6.256;2022-07-09T12:32:33;1.33;;;1.00;;
3922;SDS011;1976;51.694;6.256;2022-07-09T12:34:59;3.00;;;1.53;;
3922;SDS011;1976;51.694;6.256;2022-07-09T12:37:26;1.80;;;1.27;;
3922;SDS011;1976;51.694;6.256;2022-07-09T12:39:52;7.83;;;1.43;;
3922;SDS011;1976;51.694;6.256;2022-07-09T12:42:18;2.90;;;1.50;;
3922;SDS011;1976;51.694;6.256;2022-07-09T12:44:45;4.00;;;1.40;;
3922;SDS011;1976;51.694;6.256;2022-07-09T12:47:11;4.47;;;1.10;;
3922;SDS011;1976;51.694;6.256;2022-07-09T12:49:37;3.53;;;1.30;;
3922;SDS011;1976;51.694;6.256;2022-07-09T12:52:02;2.23;;;1.20;;
3922;SDS011;1976;51.694;6.256;2022-07-09T12:54:28;4.90;;;1.20;;
3922;SDS011;1976;51.694;6.256;2022-07-09T12:56:54;1.23;;;1.10;;
3922;SDS011;1976;51.694;6.256;2022-07-09T12:59:20;2.60;;;1.50;;
3922;SDS011;1976;51.694;6.256;2022-07-09T13:01:47;5.07;;;1.17;;
3922;SDS011;1976;51.694;6.256;2022-07-09T13:04:13;4.90;;;1.07;;
3922;SDS011;1976;51.694;6.256;2022-07-09T13:06:39;2.13;;;1.00;;
3922;SDS011;1976;51.694;6.256;2022-07-09T13:09:08;4.80;;;1.20;;
3922;SDS011;1976;51.694;6.256;2022-07-09T13:11:35;1.63;;;1.00;;
3922;SDS011;1976;51.694;6.256;2022-07-09T13:14:01;1.60;;;0.87;;
3922;SDS011;1976;51.694;6.256;2022-07-09T13:16:28;0.70;;;0.70;;
3922;SDS011;1976;51.694;6.256;2022-07-09T13:18:53;1.13;;;1.00;;
3922;SDS011;1976;51.694;6.256;2022-07-09T13:21:19;2.33;;;1.00;;
3922;SDS011;1976;51.694;6.256;2022-07-09T13:23:46;4.13;;;1.10;;
3922;SDS011;1976;51.694;6.256;2022-07-09T13:26:12;2.27;;;1.10;;
3922;SDS011;1976;51.694;6.256;2022-07-09T13:28:39;3.70;;;1.00;;
3922;SDS011;1976;51.694;6.256;2022-07-09T13:31:05;20.93;;;1.30;;
3922;SDS011;1976;51.694;6.256;2022-07-09T13:33:31;2.33;;;1.20;;
3922;SDS011;1976;51.694;6.256;2022-07-09T13:36:00;3.03;;;1.00;;
3922;SDS011;1976;51.694;6.256;2022-07-09T13:38:27;2.50;;;1.10;;
3922;SDS011;1976;51.694;6.256;2022-07-09T13:40:53;1.33;;;0.97;;
3922;SDS011;1976;51.694;6.256;2022-07-09T13:43:19;1.20;;;1.10;;
3922;SDS011;1976;51.694;6.256;2022-07-09T13:45:45;1.10;;;1.00;;
3922;SDS011;1976;51.694;6.256;2022-07-09T13:48:11;3.70;;;0.97;;
3922;SDS011;1976;51.694;6.256;2022-07-09T13:50:37;2.60;;;0.80;;
3922;SDS011;1976;51.694;6.256;2022-07-09T13:53:02;1.17;;;1.00;;
3922;SDS011;1976;51.694;6.256;2022-07-09T13:55:31;1.43;;;1.00;;
3922;SDS011;1976;51.694;6.256;2022-07-09T13:57:57;0.87;;;0.73;;
3922;SDS011;1976;51.694;6.256;2022-07-09T14:00:23;1.73;;;0.77;;
3922;SDS011;1976;51.694;6.256;2022-07-09T14:02:50;1.80;;;0.90;;
3922;SDS011;1976;51.694;6.256;2022-07-09T14:05:16;4.90;;;1.03;;
3922;SDS011;1976;51.694;6.256;2022-07-09T14:07:41;1.30;;;0.90;;
3922;SDS011;1976;51.694;6.256;2022-07-09T14:10:07;0.80;;;0.80;;
3922;SDS011;1976;51.694;6.256;2022-07-09T14:12:33;1.13;;;0.90;;
3922;SDS011;1976;51.694;6.256;2022-07-09T14:14:58;0.70;;;0.70;;
3922;SDS011;1976;51.694;6.256;2022-07-09T14:17:24;1.70;;;0.83;;
3922;SDS011;1976;51.694;6.256;2022-07-09T14:19:51;6.83;;;1.10;;
3922;SDS011;1976;51.694;6.256;2022-07-09T14:22:17;3.87;;;1.10;;
3922;SDS011;1976;51.694;6.256;2022-07-09T14:24:43;1.10;;;0.80;;
3922;SDS011;1976;51.694;6.256;2022-07-09T14:27:09;1.63;;;1.00;;
3922;SDS011;1976;51.694;6.256;2022-07-09T14:29:34;1.37;;;0.90;;
3922;SDS011;1976;51.694;6.256;2022-07-09T14:32:00;23.30;;;1.10;;
3922;SDS011;1976;51.694;6.256;2022-07-09T14:34:26;3.60;;;1.00;;
3922;SDS011;1976;51.694;6.256;2022-07-09T14:36:52;3.03;;;0.90;;
3922;SDS011;1976;51.694;6.256;2022-07-09T14:39:18;1.97;;;1.10;;
3922;SDS011;1976;51.694;6.256;2022-07-09T14:41:46;2.13;;;0.97;;
3922;SDS011;1976;51.694;6.256;2022-07-09T14:44:12;0.80;;;0.80;;
3922;SDS011;1976;51.694;6.256;2022-07-09T14:46:38;6.03;;;1.10;;
3922;SDS011;1976;51.694;6.256;2022-07-09T14:49:04;3.43;;;0.90;;
3922;SDS011;1976;51.694;6.256;2022-07-09T14:51:30;1.23;;;1.00;;
3922;SDS011;1976;51.694;6.256;2022-07-09T14:53:55;2.67;;;1.13;;
3922;SDS011;1976;51.694;6.256;2022-07-09T14:56:21;3.93;;;1.10;;
3922;SDS011;1976;51.694;6.256;2022-07-09T14:58:47;1.27;;;0.87;;
3922;SDS011;1976;51.694;6.256;2022-07-09T15:01:14;2.03;;;0.77;;
3922;SDS011;1976;51.694;6.256;2022-07-09T15:03:39;12.00;;;1.23;;
3922;SDS011;1976;51.694;6.256;2022-07-09T15:06:05;3.47;;;0.97;;
3922;SDS011;1976;51.694;6.256;2022-07-09T15:08:31;1.63;;;0.90;;